createdAt,value
2018-06-23T00:00:19.527Z,71.66
2018-06-23T00:02:48.529Z,72.49
2018-06-23T00:05:17.474Z,71.86
2018-06-23T00:07:46.462Z,71.93
2018-06-23T00:10:15.433Z,72.00
2018-06-23T00:12:44.408Z,71.90
2018-06-23T00:15:13.312Z,72.47
2018-06-23T00:17:42.202Z,72.18
2018-06-23T00:20:11.067Z,72.03
2018-06-23T00:22:39.972Z,71.83
2018-06-23T00:25:08.880Z,72.03
2018-06-23T00:27:37.824Z,72.68
2018-06-23T00:30:06.740Z,71.83
2018-06-23T00:32:35.617Z,72.06
2018-06-23T00:35:04.476Z,72.11
2018-06-23T00:37:33.321Z,72.49
2018-06-23T00:40:02.292Z,72.14
2018-06-23T00:42:31.173Z,72.16
2018-06-23T00:45:00.094Z,72.33
2018-06-23T00:47:28.962Z,72.13
2018-06-23T00:49:58.910Z,72.38
2018-06-23T00:52:27.891Z,72.63
2018-06-23T00:54:56.809Z,72.19
2018-06-23T00:57:25.747Z,72.91
2018-06-23T00:59:54.645Z,73.21
2018-06-23T01:02:23.482Z,73.40
2018-06-23T01:04:52.375Z,73.90
2018-06-23T01:07:21.288Z,73.55
2018-06-23T01:09:50.165Z,72.88
2018-06-23T01:12:19.087Z,72.00
2018-06-23T01:14:48.012Z,72.23
2018-06-23T01:17:16.985Z,72.18
2018-06-23T01:19:45.892Z,72.22
2018-06-23T01:22:14.754Z,72.55
2018-06-23T01:24:43.733Z,72.45
2018-06-23T01:27:12.734Z,72.17
2018-06-23T01:29:41.644Z,72.41
2018-06-23T01:32:10.557Z,72.68
2018-06-23T01:34:39.498Z,72.29
2018-06-23T01:37:08.340Z,73.13
2018-06-23T01:39:37.277Z,73.98
2018-06-23T01:42:07.162Z,73.96
2018-06-23T01:44:36.068Z,74.09
2018-06-23T01:47:05.024Z,75.07
2018-06-23T01:49:33.912Z,74.93
2018-06-23T01:52:02.877Z,75.17
2018-06-23T01:54:31.759Z,74.70
2018-06-23T01:57:00.736Z,75.02
2018-06-23T01:59:29.564Z,74.92
2018-06-23T02:01:58.417Z,74.54
2018-06-23T02:04:27.409Z,74.62
2018-06-23T02:06:56.255Z,74.68
2018-06-23T02:09:25.184Z,74.77
2018-06-23T02:11:54.083Z,74.81
2018-06-23T02:14:28.070Z,74.94
2018-06-23T02:17:02.133Z,75.18
2018-06-23T02:19:36.207Z,75.65
2018-06-23T02:22:10.361Z,75.46
2018-06-23T02:24:44.473Z,75.71
2018-06-23T02:27:18.674Z,76.06
2018-06-23T02:29:52.880Z,75.84
2018-06-23T02:32:26.770Z,76.62
2018-06-23T02:35:05.080Z,77.30
2018-06-23T02:37:36.219Z,77.93
2018-06-23T02:40:05.505Z,78.60
2018-06-23T02:42:34.713Z,78.62
2018-06-23T02:45:04.117Z,79.30
2018-06-23T02:47:33.055Z,79.40
2018-06-23T02:50:02.011Z,79.56
2018-06-23T02:52:31.919Z,79.70
2018-06-23T02:55:01.256Z,79.43
2018-06-23T02:57:30.367Z,79.73
2018-06-23T02:59:59.322Z,80.03
2018-06-23T03:02:28.201Z,80.52
2018-06-23T03:04:57.322Z,80.34
2018-06-23T03:07:26.228Z,80.28
2018-06-23T03:09:55.261Z,80.13
2018-06-23T03:12:24.143Z,81.20
2018-06-23T03:14:52.957Z,81.50
2018-06-23T03:17:21.885Z,81.64
2018-06-23T03:19:51.917Z,81.99
2018-06-23T03:22:20.989Z,81.94
2018-06-23T03:24:49.841Z,82.30
2018-06-23T03:27:18.706Z,81.85
2018-06-23T03:29:47.569Z,82.34
2018-06-23T03:32:16.400Z,82.42
2018-06-23T03:34:48.426Z,82.38
2018-06-23T03:37:17.286Z,82.71
2018-06-23T03:39:46.182Z,82.57
2018-06-23T03:42:15.037Z,82.80
2018-06-23T03:44:43.899Z,82.69
2018-06-23T03:47:12.827Z,82.73
2018-06-23T03:49:41.745Z,83.02
2018-06-23T03:52:10.639Z,82.87
2018-06-23T03:54:39.590Z,82.02
2018-06-23T03:57:08.481Z,82.43
2018-06-23T03:59:37.425Z,81.83
2018-06-23T04:02:06.373Z,81.64
2018-06-23T04:04:35.245Z,81.27
2018-06-23T04:07:04.140Z,81.26
2018-06-23T04:09:33.078Z,80.84
2018-06-23T04:12:01.994Z,81.55
2018-06-23T04:14:30.914Z,81.72
2018-06-23T04:16:59.862Z,81.52
2018-06-23T04:19:28.845Z,82.57
2018-06-23T04:21:57.729Z,82.34
2018-06-23T04:24:26.620Z,82.09
2018-06-23T04:26:55.492Z,82.84
2018-06-23T04:29:24.480Z,82.43
2018-06-23T04:31:53.521Z,82.59
2018-06-23T04:34:22.491Z,82.74
2018-06-23T04:36:51.424Z,83.05
2018-06-23T04:39:20.393Z,82.89
2018-06-23T04:41:49.301Z,83.07
2018-06-23T04:44:18.176Z,83.13
2018-06-23T04:46:47.057Z,83.39
2018-06-23T04:49:16.017Z,83.37
2018-06-23T04:51:44.867Z,83.58
2018-06-23T04:54:13.865Z,83.29
2018-06-23T04:56:42.775Z,83.12
2018-06-23T04:59:11.772Z,82.59
2018-06-23T05:01:40.691Z,82.87
2018-06-23T05:04:09.673Z,82.89
2018-06-23T05:06:38.685Z,82.32
2018-06-23T05:09:08.270Z,82.03
2018-06-23T05:11:37.193Z,81.56
2018-06-23T05:14:06.049Z,81.20
2018-06-23T05:16:35.000Z,81.11
2018-06-23T05:19:03.929Z,82.12
2018-06-23T05:21:32.773Z,80.58
2018-06-23T05:24:01.648Z,80.78
2018-06-23T05:26:30.559Z,80.35
2018-06-23T05:28:59.445Z,80.45
2018-06-23T05:31:28.334Z,80.11
2018-06-23T05:33:57.299Z,79.51
2018-06-23T05:36:26.519Z,80.18
2018-06-23T05:38:55.411Z,79.51
2018-06-23T05:41:24.345Z,78.96
2018-06-23T05:43:56.147Z,78.16
2018-06-23T05:46:25.101Z,76.86
2018-06-23T05:48:53.993Z,77.10
2018-06-23T05:51:23.027Z,75.96
2018-06-23T05:53:52.006Z,75.63
2018-06-23T05:56:20.926Z,77.56
2018-06-23T05:58:49.828Z,76.63
2018-06-23T06:01:18.721Z,76.12
2018-06-23T06:03:47.798Z,76.54
2018-06-23T06:06:16.818Z,76.41
2018-06-23T06:08:45.792Z,77.18
2018-06-23T06:11:14.759Z,77.22
2018-06-23T06:13:43.654Z,79.16
2018-06-23T06:16:12.583Z,79.79
2018-06-23T06:18:41.562Z,80.20
2018-06-23T06:21:10.522Z,78.25
2018-06-23T06:23:39.423Z,77.89
2018-06-23T06:26:08.308Z,78.59
2018-06-23T06:28:37.253Z,78.82
2018-06-23T06:31:06.293Z,79.32
2018-06-23T06:33:35.188Z,79.92
2018-06-23T06:36:07.189Z,79.28
2018-06-23T06:38:36.086Z,79.63
2018-06-23T06:41:05.089Z,79.93
2018-06-23T06:43:34.102Z,79.63
2018-06-23T06:46:03.036Z,79.67
2018-06-23T06:48:32.071Z,79.86
2018-06-23T06:51:00.998Z,80.10
2018-06-23T06:53:29.926Z,78.30
2018-06-23T06:55:58.803Z,79.70
2018-06-23T06:58:27.791Z,80.46
2018-06-23T07:00:56.741Z,82.01
2018-06-23T07:03:25.687Z,82.23
2018-06-23T07:05:54.585Z,83.07
2018-06-23T07:08:23.613Z,82.05
2018-06-23T07:10:52.521Z,81.60
2018-06-23T07:13:21.449Z,80.04
2018-06-23T07:15:50.421Z,80.87
2018-06-23T07:18:19.317Z,81.17
2018-06-23T07:20:48.168Z,80.45
2018-06-23T07:23:17.004Z,80.67
2018-06-23T07:25:45.861Z,79.50
2018-06-23T07:28:18.281Z,80.19
2018-06-23T07:30:48.791Z,80.27
2018-06-23T07:33:18.066Z,79.95
2018-06-23T07:35:50.437Z,80.76
2018-06-23T07:38:19.382Z,80.34
2018-06-23T07:40:48.608Z,80.50
2018-06-23T07:43:17.615Z,78.46
2018-06-23T07:45:46.830Z,80.49
2018-06-23T07:48:15.766Z,79.71
2018-06-23T07:50:44.730Z,80.77
2018-06-23T07:53:14.099Z,80.18
2018-06-23T07:55:43.162Z,80.09
2018-06-23T07:58:12.729Z,79.14
2018-06-23T08:00:41.677Z,79.64
2018-06-23T08:03:10.622Z,78.33
2018-06-23T08:05:39.733Z,76.65
2018-06-23T08:08:09.111Z,74.79
2018-06-23T08:10:38.699Z,74.36
2018-06-23T08:13:08.149Z,73.24
2018-06-23T08:15:37.171Z,72.55
2018-06-23T08:18:06.314Z,72.78
2018-06-23T08:20:35.258Z,70.78
2018-06-23T08:23:04.252Z,69.98
2018-06-23T08:25:33.248Z,71.04
2018-06-23T08:28:02.380Z,71.80
2018-06-23T08:30:31.308Z,72.73
2018-06-23T08:33:00.332Z,69.57
2018-06-23T08:35:29.216Z,66.17
2018-06-23T08:37:58.219Z,66.88
2018-06-23T08:40:27.155Z,68.82
2018-06-23T08:42:56.087Z,67.97
2018-06-23T08:45:25.066Z,70.19
2018-06-23T08:47:54.044Z,69.80
2018-06-23T08:50:23.088Z,70.62
2018-06-23T08:52:52.053Z,70.72
2018-06-23T08:55:21.073Z,73.06
2018-06-23T08:57:49.913Z,70.52
2018-06-23T09:00:18.812Z,75.55
2018-06-23T09:02:47.776Z,76.20
2018-06-23T09:05:16.689Z,77.33
2018-06-23T09:07:45.590Z,79.57
2018-06-23T09:10:14.486Z,80.08
2018-06-23T09:12:43.790Z,81.10
2018-06-23T09:15:12.959Z,80.76
2018-06-23T09:17:41.851Z,81.04
2018-06-23T09:20:11.390Z,79.50
2018-06-23T09:22:40.984Z,80.20
2018-06-23T09:25:10.085Z,79.54
2018-06-23T09:27:38.999Z,80.51
2018-06-23T09:30:08.081Z,78.89
2018-06-23T09:32:37.060Z,75.89
2018-06-23T09:35:05.905Z,76.46
2018-06-23T09:37:34.777Z,73.55
2018-06-23T09:40:03.749Z,73.70
2018-06-23T09:42:32.665Z,74.23
2018-06-23T09:45:01.556Z,73.83
2018-06-23T09:47:30.409Z,73.81
2018-06-23T09:49:59.366Z,77.10
2018-06-23T09:52:28.413Z,78.32
2018-06-23T09:54:57.399Z,78.51
2018-06-23T09:57:26.267Z,78.07
2018-06-23T09:59:57.871Z,79.26
2018-06-23T10:02:26.782Z,77.78
2018-06-23T10:04:55.690Z,77.41
2018-06-23T10:07:24.669Z,74.69
2018-06-23T10:09:53.581Z,76.28
2018-06-23T10:12:22.536Z,74.61
2018-06-23T10:14:51.475Z,73.58
2018-06-23T10:17:20.496Z,74.65
2018-06-23T10:19:49.417Z,72.24
2018-06-23T10:22:18.367Z,72.19
2018-06-23T10:24:47.222Z,71.49
2018-06-23T10:27:16.132Z,71.23
2018-06-23T10:29:44.992Z,72.25
2018-06-23T10:32:13.842Z,72.02
2018-06-23T10:34:42.884Z,73.49
2018-06-23T10:37:12.550Z,73.75
2018-06-23T10:39:41.485Z,73.50
2018-06-23T10:42:49.517Z,72.85
2018-06-23T10:45:18.637Z,72.65
2018-06-23T10:47:48.621Z,71.74
2018-06-23T10:50:17.546Z,71.17
2018-06-23T10:52:46.685Z,71.49
2018-06-23T10:55:18.705Z,70.96
2018-06-23T10:57:47.594Z,70.60
2018-06-23T11:00:16.987Z,72.08
2018-06-23T11:02:45.944Z,69.47
2018-06-23T11:05:15.266Z,71.01
2018-06-23T11:07:44.165Z,70.92
2018-06-23T11:10:13.866Z,69.64
2018-06-23T11:12:42.806Z,69.60
2018-06-23T11:15:11.796Z,70.16
2018-06-23T11:17:40.755Z,68.21
2018-06-23T11:20:09.645Z,70.56
2018-06-23T11:22:38.537Z,71.55
2018-06-23T11:25:07.433Z,73.29
2018-06-23T11:27:36.550Z,73.97
2018-06-23T11:30:07.073Z,75.31
2018-06-23T11:32:36.485Z,74.86
2018-06-23T11:35:05.738Z,74.66
2018-06-23T11:37:38.557Z,72.14
2018-06-23T11:40:10.999Z,70.70
2018-06-23T11:42:39.969Z,71.36
2018-06-23T11:45:08.837Z,69.86
2018-06-23T11:47:38.674Z,71.49
2018-06-23T11:50:07.716Z,72.17
2018-06-23T11:52:43.225Z,71.23
2018-06-23T11:55:20.115Z,72.66
2018-06-23T11:57:56.543Z,73.12
2018-06-23T12:00:32.189Z,73.39
2018-06-23T12:03:01.710Z,74.21
2018-06-23T12:05:37.792Z,75.21
2018-06-23T12:08:10.300Z,73.94
2018-06-23T12:10:41.275Z,74.89
2018-06-23T12:13:21.349Z,75.53
2018-06-23T12:15:54.517Z,74.67
2018-06-23T12:18:29.280Z,73.58
2018-06-23T12:21:02.771Z,73.17
2018-06-23T12:23:39.919Z,75.09
2018-06-23T12:26:17.682Z,76.00
2018-06-23T12:28:56.712Z,76.20
2018-06-23T12:31:35.345Z,78.09
2018-06-23T12:34:10.987Z,78.23
2018-06-23T12:36:39.866Z,78.46
2018-06-23T12:39:14.528Z,80.51
2018-06-23T12:41:47.591Z,78.87
2018-06-23T12:44:16.711Z,78.56
2018-06-23T12:46:45.598Z,78.03
2018-06-23T12:49:14.447Z,79.25
2018-06-23T12:51:43.323Z,77.45
2018-06-23T12:54:12.196Z,76.51
2018-06-23T12:56:41.089Z,77.23
2018-06-23T12:59:10.319Z,77.29
2018-06-23T13:01:39.169Z,78.47
2018-06-23T13:04:08.269Z,78.56
2018-06-23T13:06:37.108Z,79.90
2018-06-23T13:09:08.911Z,79.98
2018-06-23T13:11:37.792Z,78.02
2018-06-23T13:14:06.645Z,75.73
2018-06-23T13:16:38.336Z,76.13
2018-06-23T13:19:13.234Z,76.72
2018-06-23T13:21:44.129Z,77.22
2018-06-23T13:24:13.548Z,77.50
2018-06-23T13:26:43.651Z,79.07
2018-06-23T13:29:12.501Z,78.86
2018-06-23T13:31:41.323Z,79.14
2018-06-23T13:34:10.254Z,79.86
2018-06-23T13:36:39.353Z,79.44
2018-06-23T13:39:09.637Z,79.49
2018-06-23T13:41:38.527Z,79.27
2018-06-23T13:44:07.390Z,78.16
2018-06-23T13:46:36.297Z,78.82
2018-06-23T13:49:05.614Z,77.50
2018-06-23T13:51:34.502Z,78.07
2018-06-23T13:54:03.447Z,76.66
2018-06-23T13:56:32.312Z,78.89
2018-06-23T13:59:01.203Z,76.10
2018-06-23T14:01:30.138Z,76.69
2018-06-23T14:03:58.965Z,75.36
2018-06-23T14:06:28.565Z,76.58
2018-06-23T14:08:57.795Z,75.63
2018-06-23T14:11:26.849Z,75.85
2018-06-23T14:13:55.772Z,76.75
2018-06-23T14:16:25.628Z,76.78
2018-06-23T14:19:03.160Z,79.29
2018-06-23T14:21:32.452Z,78.67
2018-06-23T14:24:01.686Z,79.29
2018-06-23T14:26:31.204Z,79.06
2018-06-23T14:29:00.664Z,80.23
2018-06-23T14:31:29.772Z,79.04
2018-06-23T14:33:59.279Z,78.89
2018-06-23T14:36:28.281Z,80.00
2018-06-23T14:38:57.202Z,80.02
2018-06-23T14:41:26.284Z,81.51
2018-06-23T14:43:55.249Z,81.16
2018-06-23T14:46:24.208Z,81.52
2018-06-23T23:36:17.450Z,81.08
2018-06-23T23:38:46.388Z,82.07
2018-06-23T23:41:39.949Z,82.02
2018-06-23T23:54:12.469Z,82.04
2018-06-23T23:56:41.377Z,80.92
2018-06-23T23:59:10.309Z,81.71
